Time;durP1;ratioP1;P1;durP2;ratioP2;P2;SDS_P1;SDS_P2;PMS_P1;PMS_P2;Temp;Humidity;BMP_temperature;BMP_pressure;BME280_temperature;BME280_humidity;BME280_pressure;Samples;Min_cycle;Max_cycle;Signal;HPM_P1;HPM_P2
2022/03/04 00:01:02;;;;;;;34.03;16.30;;;;;;;-0.83;85.08;101699.50;7395427;19;20035;-68
2022/03/04 00:03:31;;;;;;;27.08;15.82;;;;;;;-0.79;85.25;101698.78;7394022;19;20025;-68
2022/03/04 00:05:59;;;;;;;34.33;17.02;;;;;;;-0.75;84.88;101694.66;7394076;19;20023;-67
2022/03/04 00:08:27;;;;;;;32.17;16.30;;;;;;;-0.72;85.13;101700.81;7393675;19;20027;-67
2022/03/04 00:10:56;;;;;;;32.83;17.38;;;;;;;-0.68;84.64;101705.25;7393157;19;20499;-67
2022/03/04 00:13:24;;;;;;;30.42;16.02;;;;;;;-0.66;84.58;101703.63;7393422;19;20018;-68
2022/03/04 00:15:52;;;;;;;32.92;16.60;;;;;;;-0.61;84.81;101708.06;7393236;19;20022;-67
2022/03/04 00:18:23;;;;;;;27.20;14.48;;;;;;;-0.59;84.39;101701.28;7393662;19;20022;-68
2022/03/04 00:20:51;;;;;;;29.40;16.15;;;;;;;-0.56;84.71;101707.41;7393340;19;20018;-67
2022/03/04 00:23:22;;;;;;;33.55;17.98;;;;;;;-0.53;84.15;101702.41;7392807;19;20472;-68
2022/03/04 00:25:50;;;;;;;28.77;16.38;;;;;;;-0.48;84.24;101709.44;7393087;19;20049;-68
2022/03/04 00:28:18;;;;;;;26.60;14.75;;;;;;;-0.47;84.35;101712.06;7394888;19;20035;-67
2022/03/04 00:30:47;;;;;;;29.52;16.67;;;;;;;-0.45;84.17;101712.16;7392913;19;20035;-68
2022/03/04 00:33:15;;;;;;;33.92;16.60;;;;;;;-0.42;84.06;101725.16;7394355;19;20035;-67
2022/03/04 00:35:45;;;;;;;26.98;16.00;;;;;;;-0.40;84.20;101728.66;7392621;19;20022;-67
2022/03/04 00:38:13;;;;;;;31.30;15.15;;;;;;;-0.41;84.34;101726.91;7393087;19;20022;-67
2022/03/04 00:40:42;;;;;;;28.63;15.60;;;;;;;-0.38;84.29;101734.75;7392560;19;20019;-68
2022/03/04 00:43:10;;;;;;;27.00;15.73;;;;;;;-0.36;84.30;101725.38;7394480;19;20022;-67
2022/03/04 00:45:38;;;;;;;28.63;16.02;;;;;;;-0.35;84.25;101729.72;7393274;19;20022;-67
2022/03/04 00:48:07;;;;;;;28.85;15.57;;;;;;;-0.32;84.15;101731.53;7394275;19;20035;-67
2022/03/04 00:50:35;;;;;;;27.63;16.35;;;;;;;-0.33;84.45;101730.66;7394261;19;20026;-67
2022/03/04 00:53:05;;;;;;;28.67;16.08;;;;;;;-0.32;84.20;101716.06;7398450;19;20039;-68
2022/03/04 00:55:37;;;;;;;27.48;14.68;;;;;;;-0.32;84.32;101716.06;7400464;19;20035;-68
2022/03/04 00:58:07;;;;;;;32.00;16.45;;;;;;;-0.30;84.36;101714.41;7399074;19;20504;-67
2022/03/04 01:00:35;;;;;;;30.17;15.80;;;;;;;-0.30;84.29;101720.47;7398678;19;20031;-68
2022/03/04 01:03:05;;;;;;;28.83;16.73;;;;;;;-0.28;84.10;101716.22;7398607;19;20018;-67
2022/03/04 01:05:33;;;;;;;31.67;16.08;;;;;;;-0.26;84.44;101714.59;7398570;19;20015;-67
2022/03/04 01:08:01;;;;;;;29.85;16.80;;;;;;;-0.25;84.37;101708.63;7398548;19;20015;-68
2022/03/04 01:10:32;;;;;;;27.63;16.00;;;;;;;-0.25;84.46;101710.31;7401146;19;20043;-67
2022/03/04 01:13:00;;;;;;;31.25;16.13;;;;;;;-0.24;84.52;101712.06;7401452;19;20050;-67
2022/03/04 01:15:29;;;;;;;29.42;15.48;;;;;;;-0.24;84.62;101706.91;7398117;19;20023;-67
2022/03/04 01:17:57;;;;;;;28.35;15.43;;;;;;;-0.24;85.20;101712.97;7398322;19;20035;-67
2022/03/04 01:20:26;;;;;;;28.20;15.02;;;;;;;-0.27;85.02;101709.38;7398150;19;20014;-67
2022/03/04 01:22:54;;;;;;;27.13;15.32;;;;;;;-0.25;84.53;101706.03;7398161;19;20022;-67
2022/03/04 01:25:23;;;;;;;23.88;15.30;;;;;;;-0.24;85.52;101709.50;7399526;19;20018;-68
2022/03/04 01:27:53;;;;;;;29.05;16.23;;;;;;;-0.25;85.79;101702.56;7400582;19;20022;-68
2022/03/04 01:30:22;;;;;;;30.67;16.10;;;;;;;-0.24;85.58;101704.34;7400913;19;20032;-67
2022/03/04 01:32:50;;;;;;;28.73;17.23;;;;;;;-0.24;85.88;101706.91;7397915;19;20035;-67
2022/03/04 01:35:18;;;;;;;32.15;17.48;;;;;;;-0.27;85.92;101709.38;7397977;19;20019;-68
2022/03/04 01:37:47;;;;;;;37.85;20.17;;;;;;;-0.25;85.58;101707.72;7397770;19;20039;-67
2022/03/04 01:40:15;;;;;;;31.30;18.08;;;;;;;-0.27;85.81;101701.66;7400147;19;20021;-67
2022/03/04 01:42:44;;;;;;;33.55;17.35;;;;;;;-0.27;85.92;101704.22;7400098;19;20023;-68
2022/03/04 01:45:15;;;;;;;39.08;20.48;;;;;;;-0.27;86.58;101720.56;7399010;19;20022;-67
2022/03/04 01:47:44;;;;;;;40.83;23.83;;;;;;;-0.29;87.07;101723.91;7397607;19;20029;-67
2022/03/04 01:50:13;;;;;;;45.17;24.77;;;;;;;-0.34;87.52;101716.88;7397383;19;20015;-68
2022/03/04 01:52:41;;;;;;;42.90;23.80;;;;;;;-0.36;87.11;101720.22;7397445;19;20039;-68
2022/03/04 01:55:10;;;;;;;45.70;25.23;;;;;;;-0.38;86.31;101717.59;7397622;19;20035;-68
2022/03/04 01:57:39;;;;;;;44.75;25.58;;;;;;;-0.39;86.55;101717.50;7398285;19;20035;-68
2022/03/04 02:00:13;;;;;;;40.47;23.38;;;;;;;-0.39;86.38;101721.00;7399558;19;20035;-67
2022/03/04 02:02:46;;;;;;;46.93;23.03;;;;;;;-0.37;86.46;101721.94;7399865;19;20026;-67
2022/03/04 02:05:15;;;;;;;43.40;23.87;;;;;;;-0.36;85.90;101731.41;7396587;19;20361;-68
2022/03/04 02:07:44;;;;;;;49.72;24.85;;;;;;;-0.34;86.63;101737.53;7397026;19;21059;-67
2022/03/04 02:10:13;;;;;;;42.92;23.10;;;;;;;-0.34;86.03;101742.69;7396838;19;20034;-67
2022/03/04 02:12:42;;;;;;;42.92;24.27;;;;;;;-0.31;86.06;101741.06;7399058;19;20036;-68
2022/03/04 02:15:11;;;;;;;45.22;24.98;;;;;;;-0.32;86.63;101732.41;7396505;19;20026;-67
2022/03/04 02:17:40;;;;;;;42.92;24.08;;;;;;;-0.32;86.37;101741.88;7398939;19;20035;-68
2022/03/04 02:20:12;;;;;;;43.33;24.40;;;;;;;-0.34;86.78;101734.06;7398800;19;20031;-67
2022/03/04 02:22:43;;;;;;;42.30;24.17;;;;;;;-0.37;86.42;101729.69;7396715;19;20022;-67
2022/03/04 02:25:11;;;;;;;47.80;25.40;;;;;;;-0.40;87.10;101721.81;7396712;19;20022;-67
2022/03/04 02:27:40;;;;;;;44.33;26.42;;;;;;;-0.42;87.16;101722.56;7398225;19;20494;-67
2022/03/04 02:30:09;;;;;;;46.63;26.20;;;;;;;-0.48;87.16;101725.81;7398473;19;20014;-67
2022/03/04 02:32:37;;;;;;;46.45;26.52;;;;;;;-0.53;88.03;101725.59;7396460;19;20052;-67
2022/03/04 02:35:13;;;;;;;48.63;28.27;;;;;;;-0.56;87.46;101728.03;7396464;19;20378;-67
2022/03/04 02:37:44;;;;;;;47.90;26.65;;;;;;;-0.57;87.53;101731.47;7398822;19;20018;-67
2022/03/04 02:40:14;;;;;;;46.65;27.85;;;;;;;-0.56;87.62;101732.34;7397796;19;20500;-67
2022/03/04 02:42:42;;;;;;;43.95;25.90;;;;;;;-0.58;87.42;101729.72;7398099;19;20027;-67
2022/03/04 02:45:10;;;;;;;45.60;28.58;;;;;;;-0.58;87.18;101724.56;7396842;19;20421;-67
2022/03/04 02:47:38;;;;;;;46.65;28.10;;;;;;;-0.57;86.95;101731.47;7396045;19;20022;-67
2022/03/04 02:50:08;;;;;;;49.25;28.10;;;;;;;-0.56;87.30;101733.19;7395500;19;20380;-67
2022/03/04 02:52:36;;;;;;;51.15;27.45;;;;;;;-0.54;87.37;101728.13;7395804;19;20018;-67
2022/03/04 02:55:11;;;;;;;45.10;28.08;;;;;;;-0.54;87.17;101733.28;7395524;19;20023;-67
2022/03/04 02:57:47;;;;;;;44.03;27.45;;;;;;;-0.53;86.99;101730.75;7396846;19;20023;-67
2022/03/04 03:00:17;;;;;;;50.05;28.08;;;;;;;-0.51;86.85;101729.09;7397403;19;20015;-67
2022/03/04 03:02:46;;;;;;;48.88;26.98;;;;;;;-0.48;86.65;101732.63;7397438;19;20023;-67
2022/03/04 03:05:15;;;;;;;48.95;28.30;;;;;;;-0.45;86.81;101730.19;7396384;19;20107;-68
2022/03/04 03:07:43;;;;;;;46.97;27.80;;;;;;;-0.43;86.58;101734.59;7395185;19;20018;-68
2022/03/04 03:10:15;;;;;;;44.97;26.48;;;;;;;-0.42;87.02;101733.75;7395233;19;20018;-67
2022/03/04 03:12:44;;;;;;;45.72;26.33;;;;;;;-0.41;86.88;101739.81;7395129;19;20496;-67
2022/03/04 03:15:13;;;;;;;46.60;27.35;;;;;;;-0.45;86.62;101731.06;7394296;19;20349;-68
2022/03/04 03:17:41;;;;;;;52.28;27.15;;;;;;;-0.40;86.61;101731.25;7396677;19;20027;-68
2022/03/04 03:20:11;;;;;;;42.85;26.52;;;;;;;-0.39;86.58;101733.88;7398432;19;20496;-69
2022/03/04 03:22:39;;;;;;;43.00;26.48;;;;;;;-0.37;86.85;101745.16;7397730;19;20054;-67
2022/03/04 03:25:09;;;;;;;37.03;23.98;;;;;;;-0.38;86.54;101737.31;7396458;19;20027;-68
2022/03/04 03:27:40;;;;;;;35.47;24.58;;;;;;;-0.39;86.40;101749.34;7396509;19;20019;-67
2022/03/04 03:30:10;;;;;;;40.22;25.90;;;;;;;-0.40;86.32;101742.44;7395109;19;20015;-68
2022/03/04 03:32:38;;;;;;;39.53;24.38;;;;;;;-0.40;86.11;101739.00;7394505;19;20018;-68
2022/03/04 03:35:08;;;;;;;38.28;24.48;;;;;;;-0.41;86.09;101737.22;7394002;19;20028;-67
2022/03/04 03:37:37;;;;;;;38.88;24.40;;;;;;;-0.41;86.07;101742.38;7395928;19;20022;-67
2022/03/04 03:40:06;;;;;;;38.47;24.05;;;;;;;-0.40;86.00;101744.16;7396039;19;20040;-67
2022/03/04 03:42:34;;;;;;;39.17;24.48;;;;;;;-0.41;85.78;101750.97;7396209;19;20018;-67
2022/03/04 03:45:06;;;;;;;38.75;25.42;;;;;;;-0.42;85.90;101751.78;7393877;19;20475;-67
2022/03/04 03:47:35;;;;;;;43.67;25.00;;;;;;;-0.43;85.64;101742.31;7396828;19;20019;-67
2022/03/04 03:50:03;;;;;;;36.80;21.17;;;;;;;-0.46;85.85;101747.34;7395763;19;20023;-67
2022/03/04 03:52:32;;;;;;;30.67;20.08;;;;;;;-0.48;85.45;101750.69;7395908;19;20022;-67
2022/03/04 03:55:00;;;;;;;29.17;19.67;;;;;;;-0.51;85.67;101747.16;7394749;19;20018;-67
2022/03/04 03:57:28;;;;;;;34.88;21.85;;;;;;;-0.51;85.50;101752.31;7394055;19;20011;-68
2022/03/04 03:59:56;;;;;;;31.95;20.27;;;;;;;-0.51;85.40;101752.31;7395603;19;20018;-67
2022/03/04 04:02:27;;;;;;;31.05;20.38;;;;;;;-0.51;85.47;101754.88;7395569;19;20040;-67
2022/03/04 04:04:55;;;;;;;34.17;20.35;;;;;;;-0.51;85.36;101754.88;7395228;19;20023;-68
2022/03/04 04:07:23;;;;;;;38.85;22.92;;;;;;;-0.50;85.31;101761.81;7395842;19;20101;-68
2022/03/04 04:09:52;;;;;;;35.70;21.13;;;;;;;-0.48;85.17;101763.56;7395063;19;20074;-67
2022/03/04 04:12:20;;;;;;;36.42;20.58;;;;;;;-0.48;85.18;101759.31;7395069;19;20043;-68
2022/03/04 04:14:48;;;;;;;40.88;20.90;;;;;;;-0.45;85.26;101755.97;7394646;19;20018;-66
2022/03/04 04:17:16;;;;;;;46.72;23.42;;;;;;;-0.44;85.11;101749.97;7393186;19;20026;-66
2022/03/04 04:19:47;;;;;;;44.70;23.10;;;;;;;-0.42;85.03;101753.50;7394882;19;20026;-66
2022/03/04 04:22:15;;;;;;;49.42;24.08;;;;;;;-0.41;85.06;101755.28;7395082;19;20025;-67
2022/03/04 04:24:43;;;;;;;47.95;22.40;;;;;;;-0.40;85.09;101757.03;7392427;19;20380;-66
2022/03/04 04:27:11;;;;;;;48.33;21.67;;;;;;;-0.40;84.90;101765.63;7394351;19;20031;-66
2022/03/04 04:29:39;;;;;;;51.30;25.10;;;;;;;-0.39;84.87;101769.09;7398614;19;20022;-67
2022/03/04 04:32:09;;;;;;;46.45;22.40;;;;;;;-0.40;84.77;101759.63;7398876;19;20019;-67
2022/03/04 04:34:37;;;;;;;46.88;22.60;;;;;;;-0.43;84.79;101759.47;7401192;19;20015;-67
2022/03/04 04:37:08;;;;;;;48.38;22.67;;;;;;;-0.46;84.66;101756.78;7401524;19;20429;-68
2022/03/04 04:39:36;;;;;;;45.28;23.50;;;;;;;-0.48;84.87;101761.91;7401735;19;20024;-66
2022/03/04 04:42:05;;;;;;;48.67;23.83;;;;;;;-0.50;84.77;101763.53;7401428;19;20035;-68
2022/03/04 04:44:33;;;;;;;55.55;23.55;;;;;;;-0.52;84.89;101765.16;7401040;19;20006;-66
2022/03/04 04:47:01;;;;;;;48.28;23.90;;;;;;;-0.52;84.81;101766.03;7398752;19;20010;-66
2022/03/04 04:49:30;;;;;;;52.90;25.23;;;;;;;-0.52;84.90;101760.88;7398490;19;20031;-66
2022/03/04 04:51:58;;;;;;;51.95;25.58;;;;;;;-0.52;84.70;101757.41;7401199;19;20033;-66
2022/03/04 04:54:29;;;;;;;58.00;25.45;;;;;;;-0.52;84.84;101760.88;7400477;19;20382;-67
2022/03/04 04:56:58;;;;;;;52.00;23.52;;;;;;;-0.51;84.71;101757.47;7401505;19;20102;-67
2022/03/04 04:59:26;;;;;;;52.92;24.90;;;;;;;-0.49;84.66;101765.28;7396109;19;20032;-67
2022/03/04 05:01:54;;;;;;;48.05;23.70;;;;;;;-0.47;84.63;101762.75;7398799;19;20019;-67
2022/03/04 05:04:22;;;;;;;47.90;25.25;;;;;;;-0.47;84.66;101760.19;7398234;19;20031;-67
2022/03/04 05:06:50;;;;;;;50.53;25.20;;;;;;;-0.47;84.73;101763.63;7395992;19;20015;-67
2022/03/04 05:09:19;;;;;;;53.90;24.40;;;;;;;-0.46;84.75;101764.53;7397453;19;20483;-67
2022/03/04 05:11:49;;;;;;;47.90;22.20;;;;;;;-0.46;84.85;101755.06;7396009;19;20039;-67
2022/03/04 05:14:18;;;;;;;48.08;22.75;;;;;;;-0.47;84.72;101748.16;7398615;19;20014;-67
2022/03/04 05:16:46;;;;;;;50.33;23.23;;;;;;;-0.43;84.78;101750.06;7395467;19;20018;-67
2022/03/04 05:19:14;;;;;;;47.55;24.00;;;;;;;-0.40;84.68;101757.91;7395314;19;20034;-67
2022/03/04 05:21:43;;;;;;;48.80;22.52;;;;;;;-0.37;84.43;101759.72;7397139;19;20496;-67
2022/03/04 05:24:12;;;;;;;41.58;22.40;;;;;;;-0.36;84.38;101751.16;7397307;19;20361;-67
2022/03/04 05:26:42;;;;;;;49.47;23.73;;;;;;;-0.36;84.54;101751.16;7395418;19;20018;-67
2022/03/04 05:29:14;;;;;;;46.53;23.90;;;;;;;-0.36;84.33;101758.91;7397984;19;20035;-67
2022/03/04 05:31:45;;;;;;;56.15;25.10;;;;;;;-0.35;84.40;101761.53;7395496;19;20023;-67
2022/03/04 05:34:13;;;;;;;50.08;25.70;;;;;;;-0.35;84.46;101763.25;7396815;19;20374;-66
2022/03/04 05:36:42;;;;;;;48.78;23.50;;;;;;;-0.34;84.37;101759.84;7394646;19;20018;-67
2022/03/04 05:39:10;;;;;;;52.20;25.13;;;;;;;-0.32;84.25;101760.78;7394011;19;20045;-66
2022/03/04 05:41:38;;;;;;;50.53;25.08;;;;;;;-0.30;84.51;101760.84;7394362;19;20516;-66
2022/03/04 05:44:07;;;;;;;51.55;24.35;;;;;;;-0.30;84.26;101758.25;7396986;19;20035;-67
2022/03/04 05:46:38;;;;;;;52.28;24.30;;;;;;;-0.30;84.21;101754.00;7395590;19;20007;-66
2022/03/04 05:49:06;;;;;;;48.90;24.33;;;;;;;-0.27;84.20;101766.13;7398540;19;20025;-69
2022/03/04 05:51:35;;;;;;;54.85;25.70;;;;;;;-0.26;84.22;101765.31;7396382;19;20523;-66
2022/03/04 05:54:03;;;;;;;54.15;25.92;;;;;;;-0.26;84.16;101767.91;7396285;19;20042;-66
2022/03/04 05:56:31;;;;;;;51.10;24.20;;;;;;;-0.26;84.24;101778.22;7394027;19;20034;-66
2022/03/04 05:59:07;;;;;;;64.85;31.23;;;;;;;-0.26;84.43;101770.47;6263066;19;22206703;-68
2022/03/04 06:01:44;;;;;;;51.08;26.70;;;;;;;-0.27;84.36;101776.44;7398965;19;20022;-67
2022/03/04 06:04:12;;;;;;;46.13;24.08;;;;;;;-0.27;84.37;101776.44;7397925;19;20018;-65
2022/03/04 06:06:40;;;;;;;52.67;24.35;;;;;;;-0.28;84.41;101775.53;7396053;19;20091;-67
2022/03/04 06:09:09;;;;;;;49.78;24.88;;;;;;;-0.29;84.26;101780.66;7395128;19;20028;-67
2022/03/04 06:11:37;;;;;;;49.05;23.35;;;;;;;-0.30;84.25;101784.94;7396013;19;20027;-67
2022/03/04 06:14:06;;;;;;;56.00;25.08;;;;;;;-0.34;84.25;101765.88;7398323;19;20018;-67
2022/03/04 06:16:34;;;;;;;53.70;24.50;;;;;;;-0.32;84.55;101773.69;7395824;19;20344;-67
2022/03/04 06:19:05;;;;;;;49.35;23.67;;;;;;;-0.34;84.40;101783.06;7396225;19;20019;-66
2022/03/04 06:21:33;;;;;;;55.45;25.33;;;;;;;-0.35;84.58;101789.03;7397586;19;20351;-68
2022/03/04 06:24:02;;;;;;;47.42;23.10;;;;;;;-0.36;84.47;101782.97;7398001;19;20014;-68
2022/03/04 06:26:30;;;;;;;47.10;24.05;;;;;;;-0.34;84.35;101791.66;7395622;19;20037;-67
2022/03/04 06:28:58;;;;;;;49.33;24.17;;;;;;;-0.36;84.37;101787.28;7396251;19;20022;-68
2022/03/04 06:31:26;;;;;;;53.10;23.42;;;;;;;-0.35;84.46;101797.66;7397960;19;20490;-70
2022/03/04 06:33:54;;;;;;;48.53;22.70;;;;;;;-0.36;84.51;101789.84;7395688;19;20014;-68
2022/03/04 06:36:25;;;;;;;45.38;23.75;;;;;;;-0.36;84.48;101802.75;7395531;19;20434;-68
2022/03/04 06:38:54;;;;;;;47.25;23.05;;;;;;;-0.32;84.50;101798.59;7395338;19;20487;-68
2022/03/04 06:41:22;;;;;;;43.42;23.48;;;;;;;-0.29;84.44;101806.44;7397369;19;20022;-67
2022/03/04 06:43:50;;;;;;;49.03;23.85;;;;;;;-0.29;84.27;101797.03;7395221;19;20018;-67
2022/03/04 06:46:19;;;;;;;47.47;24.00;;;;;;;-0.27;84.49;101797.94;7395893;19;20022;-68
2022/03/04 06:48:47;;;;;;;52.97;23.30;;;;;;;-0.26;84.19;101804.00;7395904;19;20014;-68
2022/03/04 06:51:15;;;;;;;48.58;24.90;;;;;;;-0.25;84.32;101801.47;7392631;19;20015;-69
2022/03/04 06:53:46;;;;;;;44.45;22.52;;;;;;;-0.24;84.15;101803.25;7397074;19;20021;-68
2022/03/04 06:56:14;;;;;;;48.58;22.90;;;;;;;-0.22;84.18;101798.13;7396039;19;20035;-68
2022/03/04 06:58:42;;;;;;;47.72;23.85;;;;;;;-0.20;84.29;101804.25;7394854;19;20010;-68
2022/03/04 07:01:10;;;;;;;48.63;22.42;;;;;;;-0.19;84.13;101809.47;7397246;19;20037;-71
2022/03/04 07:03:39;;;;;;;47.50;22.65;;;;;;;-0.17;84.13;101807.81;7394853;19;20479;-67
2022/03/04 07:06:07;;;;;;;46.42;23.40;;;;;;;-0.14;84.23;101803.59;7394905;19;20026;-67
2022/03/04 07:08:37;;;;;;;52.38;22.70;;;;;;;-0.11;84.27;101809.75;7394883;19;20014;-68
2022/03/04 07:11:08;;;;;;;51.60;23.60;;;;;;;-0.06;84.13;101807.38;7396971;19;20106;-69
2022/03/04 07:13:36;;;;;;;50.55;22.63;;;;;;;0.00;84.14;101810.19;7396927;19;20014;-66
2022/03/04 07:16:06;;;;;;;52.05;24.25;;;;;;;0.02;84.08;101803.38;7395434;19;20015;-67
2022/03/04 07:18:34;;;;;;;51.40;23.02;;;;;;;0.02;84.11;101811.09;7396684;19;20018;-67
2022/03/04 07:21:02;;;;;;;55.10;24.20;;;;;;;0.04;84.10;101806.00;7396424;19;20018;-69
2022/03/04 07:23:31;;;;;;;59.65;24.67;;;;;;;0.08;83.87;101806.19;7396393;19;20361;-67
2022/03/04 07:25:59;;;;;;;61.67;26.20;;;;;;;0.12;84.03;101814.94;7394597;19;20018;-67
2022/03/04 07:28:30;;;;;;;55.70;26.15;;;;;;;0.10;84.00;101821.72;7395318;19;20019;-67
2022/03/04 07:30:58;;;;;;;56.92;24.15;;;;;;;0.11;83.91;101814.03;7394968;19;20511;-67
2022/03/04 07:33:26;;;;;;;56.65;24.60;;;;;;;0.10;83.78;101814.88;7394235;19;20047;-66
2022/03/04 07:35:54;;;;;;;57.00;26.02;;;;;;;0.10;83.84;101825.19;7394831;19;20035;-65
2022/03/04 07:38:22;;;;;;;55.85;23.88;;;;;;;0.06;84.15;101823.31;7395512;19;20041;-66
2022/03/04 07:40:50;;;;;;;57.45;24.98;;;;;;;0.06;84.17;101828.47;7393851;19;20049;-66
2022/03/04 07:43:22;;;;;;;60.58;25.65;;;;;;;0.09;84.28;101833.75;7395023;19;20483;-67
2022/03/04 07:45:52;;;;;;;54.72;24.60;;;;;;;0.14;84.17;101833.94;7394597;19;20023;-66
2022/03/04 07:48:21;;;;;;;50.75;23.20;;;;;;;0.16;84.12;101829.69;7394463;19;20018;-67
2022/03/04 07:50:49;;;;;;;54.88;24.00;;;;;;;0.20;83.99;101829.00;7395660;19;20030;-67
2022/03/04 07:53:18;;;;;;;57.30;23.85;;;;;;;0.23;83.98;101834.28;7393824;19;20019;-66
2022/03/04 07:55:46;;;;;;;48.95;23.00;;;;;;;0.27;83.81;101832.72;7393899;19;20021;-67
2022/03/04 07:58:14;;;;;;;52.92;23.23;;;;;;;0.31;83.63;101835.44;7394151;19;20637;-64
2022/03/04 08:00:42;;;;;;;54.28;24.10;;;;;;;0.34;83.40;101842.41;7393145;19;20023;-65
2022/03/04 08:03:13;;;;;;;46.33;22.88;;;;;;;0.36;83.53;101839.94;7393399;19;20015;-67
2022/03/04 08:05:41;;;;;;;49.10;23.02;;;;;;;0.41;83.66;101839.25;7393558;19;20041;-66
2022/03/04 08:08:09;;;;;;;40.50;21.45;;;;;;;0.44;83.24;101839.41;7395782;19;20027;-66
2022/03/04 08:10:38;;;;;;;44.25;21.52;;;;;;;0.53;82.91;101843.13;7393057;19;20369;-65
2022/03/04 08:13:06;;;;;;;42.00;20.08;;;;;;;0.54;83.16;101840.59;7393829;19;20382;-65
2022/03/04 08:15:34;;;;;;;36.95;21.58;;;;;;;0.60;83.04;101850.28;7392642;19;20346;-66
2022/03/04 08:18:02;;;;;;;39.35;19.58;;;;;;;0.62;82.89;101851.19;7394268;19;20378;-66
2022/03/04 08:20:33;;;;;;;36.47;20.55;;;;;;;0.61;82.93;101849.47;7392732;19;20024;-66
2022/03/04 08:23:01;;;;;;;34.50;19.33;;;;;;;0.69;82.53;101858.38;7393301;19;20028;-66
2022/03/04 08:25:29;;;;;;;38.60;20.02;;;;;;;0.72;82.45;101853.31;7392469;19;20037;-66
2022/03/04 08:27:58;;;;;;;39.88;21.65;;;;;;;0.76;82.49;101862.06;7394209;19;20018;-66
2022/03/04 08:30:26;;;;;;;34.55;21.15;;;;;;;0.78;82.44;101861.31;7393904;19;20022;-66
2022/03/04 08:32:54;;;;;;;40.05;20.77;;;;;;;0.79;82.38;101855.28;7393690;19;20035;-66
2022/03/04 08:35:22;;;;;;;36.80;19.58;;;;;;;0.88;82.18;101861.63;7391820;19;20019;-65
2022/03/04 08:37:54;;;;;;;36.53;21.27;;;;;;;0.90;81.93;101860.84;7391347;19;20421;-66
2022/03/04 08:40:22;;;;;;;30.20;17.77;;;;;;;0.92;82.15;101863.47;7392320;19;20018;-65
2022/03/04 08:42:51;;;;;;;31.80;18.17;;;;;;;0.95;82.05;101868.78;7391698;19;20362;-66
2022/03/04 08:45:19;;;;;;;30.75;18.65;;;;;;;0.98;82.03;101866.28;7391730;19;20023;-66
2022/03/04 08:47:48;;;;;;;37.55;20.00;;;;;;;1.02;81.99;101869.88;7394230;19;20019;-67
2022/03/04 08:50:19;;;;;;;35.22;20.00;;;;;;;1.05;81.94;101878.63;7392402;19;20041;-66
2022/03/04 08:52:48;;;;;;;33.78;21.55;;;;;;;1.10;81.79;101876.16;7394281;19;20057;-66
2022/03/04 08:55:19;;;;;;;31.95;19.25;;;;;;;1.14;81.56;101878.94;7391416;19;20345;-66
2022/03/04 08:57:49;;;;;;;34.22;20.38;;;;;;;1.18;81.51;101882.50;7391701;19;20027;-66
2022/03/04 09:00:19;;;;;;;37.83;20.83;;;;;;;1.21;81.43;101884.31;7392042;19;20021;-66
2022/03/04 09:02:47;;;;;;;31.58;19.00;;;;;;;1.23;81.33;101882.69;7392747;19;20333;-66
2022/03/04 09:05:16;;;;;;;28.80;19.08;;;;;;;1.27;81.69;101884.53;7391503;19;20018;-66
2022/03/04 09:07:44;;;;;;;29.42;16.85;;;;;;;1.31;81.57;101886.41;7393123;19;20022;-64
2022/03/04 09:10:13;;;;;;;32.33;18.70;;;;;;;1.35;81.49;101888.25;7390954;19;20038;-65
2022/03/04 09:12:44;;;;;;;28.95;18.33;;;;;;;1.38;81.39;101884.88;7393765;19;20031;-65
2022/03/04 09:15:12;;;;;;;30.38;18.85;;;;;;;1.40;81.18;101889.31;7399336;19;20503;-65
2022/03/04 09:17:41;;;;;;;29.25;18.35;;;;;;;1.44;81.21;101883.41;7398337;19;20022;-65
2022/03/04 09:20:10;;;;;;;25.77;16.85;;;;;;;1.48;81.25;101888.69;7400513;19;20014;-65
2022/03/04 09:22:38;;;;;;;22.95;16.17;;;;;;;1.53;81.27;101887.13;7397587;19;20042;-66
2022/03/04 09:25:07;;;;;;;27.75;16.80;;;;;;;1.56;81.24;101875.19;7399757;19;20032;-65
2022/03/04 09:27:36;;;;;;;25.83;15.85;;;;;;;1.62;80.93;101879.69;7397122;19;20019;-66
2022/03/04 09:30:08;;;;;;;23.92;14.68;;;;;;;1.67;80.96;101879.81;7399728;19;20018;-66
2022/03/04 09:32:37;;;;;;;23.23;14.95;;;;;;;1.71;80.79;101881.72;7397127;19;20018;-66
2022/03/04 09:35:05;;;;;;;22.65;14.35;;;;;;;1.74;80.84;101876.63;7397890;19;20014;-66
2022/03/04 09:37:34;;;;;;;21.90;14.73;;;;;;;1.78;80.62;101886.22;7397492;19;20388;-66
2022/03/04 09:40:02;;;;;;;21.83;13.57;;;;;;;1.82;80.80;101882.03;7399507;19;20028;-66
2022/03/04 09:42:30;;;;;;;19.48;12.65;;;;;;;1.87;80.91;101888.25;7399257;19;20022;-66
2022/03/04 09:44:58;;;;;;;20.70;14.18;;;;;;;1.92;80.60;101878.91;7397155;19;20015;-66
2022/03/04 09:47:30;;;;;;;20.67;13.38;;;;;;;1.96;80.64;101878.22;7399700;19;20019;-66
2022/03/04 09:49:58;;;;;;;19.80;13.57;;;;;;;1.98;80.44;101876.53;7397071;19;20022;-66
2022/03/04 09:52:27;;;;;;;21.73;13.55;;;;;;;1.99;80.10;101877.44;7399122;19;20455;-66
2022/03/04 09:54:55;;;;;;;18.40;12.75;;;;;;;2.03;80.41;101874.09;7398898;19;20018;-66
2022/03/04 09:57:24;;;;;;;19.27;12.98;;;;;;;2.06;80.37;101872.50;7397941;19;20027;-66
2022/03/04 09:59:52;;;;;;;18.13;12.57;;;;;;;2.10;80.15;101876.06;7397269;19;20010;-66
2022/03/04 10:02:21;;;;;;;17.98;12.10;;;;;;;2.14;80.07;101877.00;7398933;19;20027;-66
2022/03/04 10:04:59;;;;;;;21.17;11.73;;;;;;;2.15;80.47;101873.59;7396687;19;20031;-66
2022/03/04 10:07:27;;;;;;;16.95;11.65;;;;;;;2.18;80.37;101882.34;7399078;19;20011;-66
2022/03/04 10:09:57;;;;;;;20.65;12.55;;;;;;;2.23;80.40;101882.50;7396949;19;20022;-66
2022/03/04 10:12:25;;;;;;;18.63;11.48;;;;;;;2.29;80.15;101880.09;7398057;19;20487;-67
2022/03/04 10:15:03;;;;;;;15.73;11.27;;;;;;;2.36;80.21;101876.84;7397254;19;20021;-66
2022/03/04 10:17:31;;;;;;;14.50;9.55;;;;;;;2.43;80.10;101870.16;7396987;19;20025;-66
2022/03/04 10:20:04;;;;;;;15.13;9.90;;;;;;;2.46;79.61;101866.78;7395820;19;20019;-66
2022/03/04 10:22:46;;;;;;;15.00;9.82;;;;;;;2.49;79.19;101872.94;7397567;19;20398;-66
2022/03/04 10:25:20;;;;;;;14.68;9.48;;;;;;;2.52;79.25;101867.81;7394783;19;20098;-65
2022/03/04 10:27:49;;;;;;;13.70;8.77;;;;;;;2.57;79.21;101860.19;7396047;19;20014;-66
2022/03/04 10:30:18;;;;;;;15.77;9.05;;;;;;;2.65;79.12;101871.63;7395585;19;20035;-66
2022/03/04 10:32:46;;;;;;;15.15;7.88;;;;;;;2.72;78.67;101872.72;7395322;19;20035;-66
2022/03/04 10:35:17;;;;;;;11.35;8.13;;;;;;;2.76;77.70;101880.59;7395437;19;20032;-66
2022/03/04 10:37:48;;;;;;;11.07;8.20;;;;;;;2.79;77.72;101877.22;7394998;19;20500;-66
2022/03/04 10:40:18;;;;;;;10.88;7.18;;;;;;;2.83;77.29;101870.41;7395642;19;20023;-66
2022/03/04 10:42:52;;;;;;;12.52;7.90;;;;;;;2.89;77.47;101871.50;7398194;19;20107;-66
2022/03/04 10:45:23;;;;;;;11.20;7.47;;;;;;;2.96;76.05;101869.03;7395995;19;20023;-66
2022/03/04 10:47:54;;;;;;;9.05;6.18;;;;;;;3.00;76.69;101868.31;7395388;19;20022;-66
2022/03/04 10:50:33;;;;;;;12.30;6.25;;;;;;;3.03;75.53;101864.09;7396146;19;20033;-66
2022/03/04 10:53:03;;;;;;;13.05;6.05;;;;;;;3.06;75.86;101864.16;7397988;19;20014;-65
2022/03/04 10:55:39;;;;;;;7.38;5.13;;;;;;;3.10;75.14;101863.41;7396322;19;20061;-66
2022/03/04 10:58:09;;;;;;;11.15;5.28;;;;;;;3.18;75.45;101866.19;7395515;19;20010;-66
2022/03/04 11:00:39;;;;;;;9.13;4.90;;;;;;;3.19;74.47;101859.31;7395211;19;20011;-65
2022/03/04 11:03:08;;;;;;;8.38;4.85;;;;;;;3.31;74.47;101870.00;7397000;19;20010;-66
2022/03/04 11:05:39;;;;;;;9.77;5.40;;;;;;;3.37;73.98;101864.97;7394553;19;20018;-66
2022/03/04 11:08:08;;;;;;;7.28;4.28;;;;;;;3.41;72.97;101860.72;7395260;19;20023;-66
2022/03/04 11:10:36;;;;;;;6.00;3.35;;;;;;;3.44;73.22;101860.81;7393964;19;20035;-66
2022/03/04 11:13:06;;;;;;;6.13;4.05;;;;;;;3.49;73.34;101861.81;7394659;19;20519;-67
2022/03/04 11:15:36;;;;;;;5.38;3.30;;;;;;;3.57;72.43;101856.81;7395230;19;20354;-66
2022/03/04 11:18:07;;;;;;;8.77;3.90;;;;;;;3.61;72.12;101861.25;7394852;19;20014;-69
2022/03/04 11:20:36;;;;;;;5.10;2.60;;;;;;;3.64;71.11;101860.44;7395063;19;20035;-67
2022/03/04 11:23:07;;;;;;;4.20;2.30;;;;;;;3.61;68.66;101857.78;7395726;19;20031;-66